createdAt,value
2022-10-14T00:00:05.801Z,11.74
2022-10-14T00:01:05.791Z,11.74
2022-10-14T00:02:05.905Z,11.83
2022-10-14T00:03:05.759Z,11.75
2022-10-14T00:04:05.743Z,11.82
2022-10-14T00:05:05.736Z,11.75
2022-10-14T00:06:05.736Z,11.75
2022-10-14T00:07:05.695Z,11.70
2022-10-14T00:08:05.700Z,11.74
2022-10-14T00:09:05.680Z,11.71
2022-10-14T00:10:05.699Z,11.74
2022-10-14T00:11:05.678Z,11.70
2022-10-14T00:12:05.647Z,11.74
2022-10-14T00:13:05.631Z,11.67
2022-10-14T00:14:05.632Z,11.72
2022-10-14T00:15:05.614Z,11.68
2022-10-14T00:16:05.640Z,11.74
2022-10-14T00:17:05.593Z,11.68
2022-10-14T00:18:05.583Z,11.65
2022-10-14T00:19:05.576Z,11.67
2022-10-14T00:20:05.562Z,11.61
2022-10-14T00:21:05.566Z,11.52
2022-10-14T00:22:05.535Z,11.46
2022-10-14T00:23:05.522Z,11.36
2022-10-14T00:24:05.525Z,11.38
2022-10-14T00:25:05.504Z,11.27
2022-10-14T00:26:05.509Z,11.28
2022-10-14T00:27:05.492Z,11.21
2022-10-14T00:28:05.477Z,11.17
2022-10-14T00:29:05.456Z,11.17
2022-10-14T00:30:05.453Z,11.20
2022-10-14T00:31:05.442Z,11.24
2022-10-14T00:32:05.472Z,11.19
2022-10-14T00:33:05.419Z,11.25
2022-10-14T00:34:05.415Z,11.19
2022-10-14T00:35:05.399Z,11.25
2022-10-14T00:36:05.417Z,11.24
2022-10-14T00:37:05.374Z,11.28
2022-10-14T00:38:05.373Z,11.25
2022-10-14T00:39:05.362Z,11.24
2022-10-14T00:40:05.340Z,11.21
2022-10-14T00:41:05.346Z,11.28
2022-10-14T00:42:05.322Z,11.21
2022-10-14T00:43:05.311Z,11.32
2022-10-14T00:44:05.300Z,11.29
2022-10-14T00:45:05.286Z,11.28
2022-10-14T00:46:05.299Z,11.27
2022-10-14T00:47:05.263Z,11.16
2022-10-14T00:48:05.275Z,11.21
2022-10-14T00:49:05.245Z,11.19
2022-10-14T00:50:05.245Z,11.16
2022-10-14T00:51:05.271Z,11.17
2022-10-14T00:52:05.224Z,11.20
2022-10-14T00:53:05.202Z,11.11
2022-10-14T00:54:05.196Z,11.17
2022-10-14T00:55:05.174Z,11.14
2022-10-14T00:56:05.195Z,11.14
2022-10-14T00:57:05.185Z,11.14
2022-10-14T00:58:05.148Z,11.16
2022-10-14T00:59:05.137Z,11.16
2022-10-14T01:00:05.131Z,11.14
2022-10-14T01:01:05.182Z,11.13
2022-10-14T01:02:05.104Z,11.11
2022-10-14T01:03:05.104Z,11.16
2022-10-14T01:04:05.096Z,11.16
2022-10-14T01:05:05.121Z,11.17
2022-10-14T01:06:05.078Z,11.11
2022-10-14T01:07:05.043Z,11.10
2022-10-14T01:08:05.040Z,11.07
2022-10-14T01:09:05.051Z,11.07
2022-10-14T01:10:05.096Z,11.02
2022-10-14T01:11:05.011Z,11.11
2022-10-14T01:12:27.474Z,11.07
2022-10-14T01:13:05.981Z,11.19
2022-10-14T01:14:04.972Z,11.14
2022-10-14T01:15:05.108Z,11.11
2022-10-14T01:16:04.958Z,11.11
2022-10-14T01:17:04.939Z,11.07
2022-10-14T01:18:04.928Z,10.98
2022-10-14T01:19:04.913Z,11.09
2022-10-14T01:20:04.918Z,11.06
2022-10-14T01:21:04.907Z,10.98
2022-10-14T01:22:04.882Z,10.98
2022-10-14T01:23:04.868Z,10.92
2022-10-14T01:24:04.865Z,10.92
2022-10-14T01:25:04.852Z,10.94
2022-10-14T01:26:04.869Z,10.91
2022-10-14T01:27:04.838Z,10.94
2022-10-14T01:28:04.824Z,10.89
2022-10-14T01:29:04.813Z,10.95
2022-10-14T01:30:04.794Z,10.81
2022-10-14T01:31:04.800Z,10.94
2022-10-14T01:32:04.773Z,10.88
2022-10-14T01:33:04.763Z,10.88
2022-10-14T01:34:04.746Z,10.80
2022-10-14T01:35:04.752Z,10.77
2022-10-14T01:36:04.747Z,10.77
2022-10-14T01:37:04.729Z,10.76
2022-10-14T01:38:04.712Z,10.76
2022-10-14T01:39:04.701Z,10.71
2022-10-14T01:40:04.679Z,10.74
2022-10-14T01:41:04.680Z,10.77
2022-10-14T01:42:04.681Z,10.76
2022-10-14T01:43:04.651Z,10.78
2022-10-14T01:44:04.644Z,10.81
2022-10-14T01:45:04.635Z,10.80
2022-10-14T01:46:04.619Z,10.80
2022-10-14T01:47:04.618Z,10.73
2022-10-14T01:48:04.591Z,10.77
2022-10-14T01:49:04.587Z,10.74
2022-10-14T01:50:04.574Z,10.71
2022-10-14T01:51:04.565Z,10.65
2022-10-14T01:52:04.588Z,10.66
2022-10-14T01:53:04.542Z,10.65
2022-10-14T01:54:04.533Z,10.62
2022-10-14T01:55:04.523Z,10.44
2022-10-14T01:56:04.533Z,10.60
2022-10-14T01:57:04.510Z,10.62
2022-10-14T01:58:04.491Z,10.63
2022-10-14T01:59:04.478Z,10.63
2022-10-14T02:00:04.472Z,10.60
2022-10-14T02:01:04.485Z,10.62
2022-10-14T02:02:04.487Z,10.65
2022-10-14T02:03:04.436Z,10.68
2022-10-14T02:04:04.426Z,10.68
2022-10-14T02:05:04.417Z,10.68
2022-10-14T02:06:11.462Z,10.70
2022-10-14T02:07:04.387Z,10.71
2022-10-14T02:08:04.386Z,10.81
2022-10-14T02:09:04.361Z,10.74
2022-10-14T02:10:04.351Z,10.73
2022-10-14T02:11:04.350Z,10.74
2022-10-14T02:12:04.331Z,10.73
2022-10-14T02:13:04.322Z,10.70
2022-10-14T02:14:04.309Z,10.66
2022-10-14T02:15:04.296Z,10.65
2022-10-14T02:16:04.298Z,10.62
2022-10-14T02:17:04.273Z,10.63
2022-10-14T02:18:04.262Z,10.60
2022-10-14T02:19:04.252Z,10.58
2022-10-14T02:20:04.242Z,10.56
2022-10-14T02:21:04.240Z,10.53
2022-10-14T02:22:04.219Z,10.52
2022-10-14T02:23:04.210Z,10.51
2022-10-14T02:24:04.244Z,10.39
2022-10-14T02:25:04.187Z,10.40
2022-10-14T02:26:04.242Z,10.40
2022-10-14T02:27:04.170Z,10.37
2022-10-14T02:28:04.156Z,10.37
2022-10-14T02:29:04.146Z,10.36
2022-10-14T02:30:04.141Z,10.37
2022-10-14T02:31:04.122Z,10.37
2022-10-14T02:32:04.114Z,10.39
2022-10-14T02:33:04.113Z,10.34
2022-10-14T02:34:04.091Z,10.36
2022-10-14T02:35:04.092Z,10.34
2022-10-14T02:36:04.067Z,10.36
2022-10-14T02:37:04.059Z,10.34
2022-10-14T02:38:04.046Z,10.44
2022-10-14T02:39:04.045Z,10.44
2022-10-14T02:40:04.068Z,10.40
2022-10-14T02:41:04.016Z,10.47
2022-10-14T02:42:04.004Z,10.52
2022-10-14T02:43:03.996Z,10.52
2022-10-14T02:44:03.983Z,10.59
2022-10-14T02:45:03.979Z,10.52
2022-10-14T02:46:03.975Z,10.62
2022-10-14T02:47:03.952Z,10.62
2022-10-14T02:48:03.941Z,10.65
2022-10-14T02:49:03.930Z,10.68
2022-10-14T02:50:03.928Z,10.71
2022-10-14T02:51:03.909Z,10.68
2022-10-14T02:52:03.898Z,10.84
2022-10-14T02:53:03.886Z,10.77
2022-10-14T02:54:03.880Z,10.77
2022-10-14T02:55:03.875Z,10.78
2022-10-14T02:56:03.871Z,10.74
2022-10-14T02:57:03.845Z,10.76
2022-10-14T02:58:03.864Z,10.71
2022-10-14T02:59:03.828Z,10.86
2022-10-14T03:00:03.823Z,10.88
2022-10-14T03:01:03.803Z,10.78
2022-10-14T03:02:03.861Z,10.86
2022-10-14T03:03:03.785Z,10.84
2022-10-14T03:04:03.768Z,10.96
2022-10-14T03:05:03.773Z,10.92
2022-10-14T03:06:03.745Z,10.81
2022-10-14T03:07:03.738Z,10.94
2022-10-14T03:08:03.723Z,10.84
2022-10-14T03:09:03.714Z,10.88
2022-10-14T03:10:03.716Z,10.83
2022-10-14T03:11:03.695Z,10.89
2022-10-14T03:12:03.697Z,10.83
2022-10-14T03:13:03.689Z,10.83
2022-10-14T03:14:03.710Z,10.78
2022-10-14T03:15:03.667Z,10.78
2022-10-14T03:16:03.685Z,10.83
2022-10-14T03:17:03.626Z,10.77
2022-10-14T03:18:03.617Z,10.81
2022-10-14T03:19:03.605Z,10.73
2022-10-14T03:20:03.607Z,10.73
2022-10-14T03:21:03.584Z,10.81
2022-10-14T03:22:03.570Z,10.78
2022-10-14T03:23:03.563Z,10.83
2022-10-14T03:24:03.548Z,10.77
2022-10-14T03:25:03.552Z,10.73
2022-10-14T03:26:03.529Z,10.78
2022-10-14T03:27:03.517Z,10.78
2022-10-14T03:28:03.526Z,10.70
2022-10-14T03:29:03.496Z,10.77
2022-10-14T03:30:03.496Z,10.77
2022-10-14T03:31:03.474Z,10.89
2022-10-14T03:32:03.463Z,10.83
2022-10-14T03:33:03.451Z,10.81
2022-10-14T03:34:03.443Z,10.88
2022-10-14T03:35:03.445Z,10.88
2022-10-14T03:36:03.424Z,10.88
2022-10-14T03:37:03.408Z,10.91
2022-10-14T03:38:03.403Z,10.77
2022-10-14T03:39:03.387Z,10.96
2022-10-14T03:40:03.385Z,10.78
2022-10-14T03:41:03.365Z,10.84
2022-10-14T03:42:03.352Z,10.86
2022-10-14T03:43:03.348Z,10.88
2022-10-14T03:44:03.348Z,10.84
2022-10-14T03:45:03.332Z,10.84
2022-10-14T03:46:03.309Z,10.84
2022-10-14T03:47:03.299Z,10.80
2022-10-14T03:48:03.286Z,10.77
2022-10-14T03:49:03.281Z,10.83
2022-10-14T03:50:03.291Z,10.76
2022-10-14T03:51:03.258Z,10.78
2022-10-14T03:52:03.242Z,10.89
2022-10-14T03:53:03.237Z,10.88
2022-10-14T03:54:03.223Z,10.86
2022-10-14T03:55:03.221Z,10.83
2022-10-14T03:56:03.199Z,10.80
2022-10-14T03:57:03.192Z,10.91
2022-10-14T03:58:03.177Z,10.83
2022-10-14T03:59:03.224Z,10.98
2022-10-14T04:00:03.200Z,10.91
2022-10-14T04:01:03.149Z,10.89
2022-10-14T04:02:03.218Z,11.01
2022-10-14T04:03:03.123Z,10.81
2022-10-14T04:04:03.121Z,10.91
2022-10-14T04:05:03.113Z,10.94
2022-10-14T04:06:03.089Z,10.91
2022-10-14T04:07:03.082Z,10.98
2022-10-14T04:08:03.072Z,10.91
2022-10-14T04:09:03.068Z,10.94
2022-10-14T04:10:03.050Z,10.77
2022-10-14T04:11:03.037Z,10.83
2022-10-14T04:12:03.042Z,10.83
2022-10-14T04:13:03.015Z,10.77
2022-10-14T04:14:03.016Z,10.81
2022-10-14T04:15:02.993Z,10.95
2022-10-14T04:16:02.996Z,10.80
2022-10-14T04:17:02.972Z,10.94
2022-10-14T04:18:02.959Z,10.89
2022-10-14T04:19:03.063Z,10.88
2022-10-14T04:20:02.942Z,10.84
2022-10-14T04:21:02.927Z,10.88
2022-10-14T04:22:02.924Z,10.83
2022-10-14T04:23:02.905Z,10.83
2022-10-14T04:24:08.006Z,10.84
2022-10-14T04:25:03.882Z,10.91
2022-10-14T04:26:02.872Z,11.02
2022-10-14T04:27:02.863Z,10.92
2022-10-14T04:28:02.850Z,10.92
2022-10-14T04:29:02.958Z,10.86
2022-10-14T04:30:02.830Z,10.89
2022-10-14T04:31:02.817Z,10.83
2022-10-14T04:32:02.829Z,10.83
2022-10-14T04:33:02.796Z,10.95
2022-10-14T04:34:02.797Z,10.91
2022-10-14T04:35:02.775Z,10.92
2022-10-14T04:36:02.764Z,10.96
2022-10-14T04:37:02.752Z,10.96
2022-10-14T04:38:02.740Z,11.02
2022-10-14T04:39:02.744Z,10.99
2022-10-14T04:40:02.719Z,10.94
2022-10-14T04:41:02.711Z,10.94
2022-10-14T04:42:02.701Z,11.01
2022-10-14T04:43:02.688Z,10.99
2022-10-14T04:44:02.688Z,10.92
2022-10-14T04:45:02.669Z,10.98
2022-10-14T04:46:02.657Z,10.91
2022-10-14T04:47:02.644Z,10.98
2022-10-14T04:48:02.650Z,10.89
2022-10-14T04:49:02.631Z,10.92
2022-10-14T04:50:02.609Z,10.86
2022-10-14T04:51:02.601Z,10.92
2022-10-14T04:52:02.588Z,10.91
2022-10-14T04:53:02.579Z,10.92
2022-10-14T04:54:02.576Z,10.89
2022-10-14T04:55:02.557Z,10.92
2022-10-14T04:56:02.544Z,10.94
2022-10-14T04:57:02.536Z,10.94
2022-10-14T04:58:02.523Z,10.98
2022-10-14T04:59:02.529Z,10.94
2022-10-14T05:00:02.500Z,10.99
2022-10-14T05:01:02.491Z,11.06
2022-10-14T05:02:02.602Z,11.03
2022-10-14T05:03:02.476Z,11.10
2022-10-14T05:04:02.475Z,11.13
2022-10-14T05:05:02.460Z,11.14
2022-10-14T05:06:02.434Z,11.11
2022-10-14T05:07:02.430Z,11.14
2022-10-14T05:08:02.416Z,11.16
2022-10-14T05:09:02.408Z,11.14
2022-10-14T05:10:02.549Z,11.17
2022-10-14T05:11:02.385Z,11.16
2022-10-14T05:12:02.382Z,11.14
2022-10-14T05:13:02.365Z,11.14
2022-10-14T05:14:02.347Z,11.16
2022-10-14T05:15:02.362Z,11.20
2022-10-14T05:16:02.327Z,11.13
2022-10-14T05:17:02.371Z,11.24
2022-10-14T05:18:02.303Z,11.19
2022-10-14T05:19:02.294Z,11.28
2022-10-14T05:20:02.316Z,11.14
2022-10-14T05:21:02.273Z,11.20
2022-10-14T05:22:02.297Z,11.24
2022-10-14T05:23:02.251Z,11.24
2022-10-14T05:24:02.239Z,11.31
2022-10-14T05:25:02.242Z,11.27
2022-10-14T05:26:02.230Z,11.28
2022-10-14T05:27:02.207Z,11.35
2022-10-14T05:28:02.196Z,11.28
2022-10-14T05:29:02.235Z,11.36
2022-10-14T05:30:02.185Z,11.27
2022-10-14T05:31:02.167Z,11.35
2022-10-14T05:32:02.150Z,11.27
2022-10-14T05:33:02.144Z,11.25
2022-10-14T05:34:02.127Z,11.31
2022-10-14T05:35:02.134Z,11.31
2022-10-14T05:36:02.134Z,11.29
2022-10-14T05:37:02.102Z,11.20
2022-10-14T05:38:04.383Z,11.17
2022-10-14T05:39:02.078Z,11.27
2022-10-14T05:40:02.074Z,11.28
2022-10-14T05:41:02.054Z,11.34
2022-10-14T05:42:02.041Z,11.34
2022-10-14T05:43:02.030Z,11.31
2022-10-14T05:44:02.021Z,11.25
2022-10-14T05:45:02.032Z,11.39
2022-10-14T05:46:02.001Z,11.36
2022-10-14T05:47:01.988Z,11.31
2022-10-14T05:48:01.976Z,11.29
2022-10-14T05:49:01.967Z,11.35
2022-10-14T05:50:01.980Z,11.41
2022-10-14T05:51:01.945Z,11.34
2022-10-14T05:52:01.955Z,11.35
2022-10-14T05:53:01.924Z,11.35
2022-10-14T05:54:01.914Z,11.41
2022-10-14T05:55:01.912Z,11.44
2022-10-14T05:56:01.895Z,11.41
2022-10-14T05:57:01.878Z,11.39
2022-10-14T05:58:01.868Z,11.44
2022-10-14T05:59:01.858Z,11.39
2022-10-14T06:00:01.863Z,11.49
2022-10-14T06:01:01.834Z,11.46
2022-10-14T06:02:01.825Z,11.59
2022-10-14T06:03:01.858Z,11.50
2022-10-14T06:04:01.813Z,11.57
2022-10-14T06:05:01.800Z,11.52
2022-10-14T06:06:01.784Z,11.59
2022-10-14T06:07:01.770Z,11.59
2022-10-14T06:08:01.779Z,11.57
2022-10-14T06:09:01.752Z,11.61
2022-10-14T06:10:01.803Z,11.61
2022-10-14T06:11:01.726Z,11.61
2022-10-14T06:12:01.736Z,11.59
2022-10-14T06:13:01.706Z,11.67
2022-10-14T06:14:01.696Z,11.68
2022-10-14T06:15:01.693Z,11.65
2022-10-14T06:16:01.675Z,11.71
2022-10-14T06:17:01.663Z,11.65
2022-10-14T06:18:01.653Z,11.75
2022-10-14T06:19:01.643Z,11.75
2022-10-14T06:20:01.655Z,11.89
2022-10-14T06:21:01.619Z,11.85
2022-10-14T06:22:01.610Z,11.74
2022-10-14T06:23:01.597Z,11.75
2022-10-14T06:24:01.605Z,11.82
2022-10-14T06:25:04.194Z,11.82
2022-10-14T06:26:01.568Z,11.77
2022-10-14T06:27:01.555Z,11.77
2022-10-14T06:28:01.546Z,11.72
2022-10-14T06:29:01.625Z,11.82
2022-10-14T06:30:01.550Z,11.80
2022-10-14T06:31:01.511Z,11.83
2022-10-14T06:32:01.503Z,11.82
2022-10-14T06:33:01.492Z,11.85
2022-10-14T06:34:01.481Z,11.87
2022-10-14T06:35:01.481Z,11.87
2022-10-14T06:36:01.459Z,11.89
2022-10-14T06:37:02.539Z,11.93
2022-10-14T06:38:01.437Z,11.93
2022-10-14T06:39:01.426Z,11.90
2022-10-14T06:40:01.457Z,12.01
2022-10-14T06:41:01.405Z,11.97
2022-10-14T06:42:01.396Z,12.06
2022-10-14T06:43:01.381Z,12.08
2022-10-14T06:44:01.373Z,12.08
2022-10-14T06:45:01.373Z,12.11
2022-10-14T06:46:01.351Z,12.08
2022-10-14T06:47:01.340Z,12.05
2022-10-14T06:48:01.331Z,12.06
2022-10-14T06:49:01.318Z,12.08
2022-10-14T06:50:01.333Z,12.06
2022-10-14T06:51:01.295Z,12.11
2022-10-14T06:52:01.289Z,12.08
2022-10-14T06:53:01.275Z,12.09
2022-10-14T06:54:01.264Z,12.12
2022-10-14T06:55:01.262Z,12.12
2022-10-14T06:56:01.273Z,12.11
2022-10-14T06:57:01.233Z,12.16
2022-10-14T06:58:01.223Z,12.13
2022-10-14T06:59:01.216Z,12.20
2022-10-14T07:00:01.211Z,12.19
2022-10-14T07:01:01.198Z,12.23
2022-10-14T07:02:01.229Z,12.26
2022-10-14T07:03:01.169Z,12.31
2022-10-14T07:04:01.608Z,12.37
2022-10-14T07:05:01.158Z,12.37
2022-10-14T07:06:01.138Z,12.39
2022-10-14T07:07:01.123Z,12.46
2022-10-14T07:09:01.109Z,12.54
2022-10-14T07:10:01.091Z,12.49
2022-10-14T07:11:01.079Z,12.62
2022-10-14T07:12:01.097Z,12.63
2022-10-14T07:13:01.059Z,12.64
2022-10-14T07:14:01.065Z,12.64
2022-10-14T07:15:01.037Z,12.67
2022-10-14T07:16:01.025Z,12.66
2022-10-14T07:17:01.051Z,12.67
2022-10-14T07:18:01.007Z,12.74
2022-10-14T07:19:01.025Z,12.67
2022-10-14T07:20:01.010Z,12.84
2022-10-14T07:21:00.968Z,12.85
2022-10-14T07:22:00.960Z,12.85
2022-10-14T07:23:00.966Z,12.93
2022-10-14T07:24:00.942Z,12.92
2022-10-14T07:25:00.936Z,12.89
2022-10-14T07:26:00.918Z,13.02
2022-10-14T07:27:00.904Z,13.07
2022-10-14T07:28:00.916Z,13.07
2022-10-14T07:29:00.970Z,13.15
2022-10-14T07:30:00.893Z,13.20
2022-10-14T07:31:00.860Z,13.15
2022-10-14T07:32:00.855Z,13.21
2022-10-14T07:33:00.839Z,13.18
2022-10-14T07:34:00.829Z,13.21
2022-10-14T07:35:00.830Z,13.15
2022-10-14T07:36:00.869Z,13.21
2022-10-14T07:37:00.803Z,13.18
2022-10-14T07:38:00.840Z,13.17
2022-10-14T07:39:00.774Z,13.14
2022-10-14T07:40:00.780Z,13.15
2022-10-14T07:41:00.753Z,13.15
2022-10-14T07:42:00.743Z,13.20
2022-10-14T07:43:00.730Z,13.20
2022-10-14T07:44:00.750Z,13.25
2022-10-14T07:45:00.721Z,13.33
2022-10-14T07:46:00.701Z,13.40
2022-10-14T07:47:00.690Z,13.32
2022-10-14T07:48:00.677Z,13.30
2022-10-14T07:49:00.667Z,13.44
2022-10-14T07:50:00.666Z,13.44
2022-10-14T07:51:00.647Z,13.51
2022-10-14T07:52:00.640Z,13.55
2022-10-14T07:53:01.582Z,13.54
2022-10-14T07:54:00.614Z,13.55
2022-10-14T07:55:00.623Z,13.59
2022-10-14T07:56:00.593Z,13.65
2022-10-14T07:57:00.590Z,13.65
2022-10-14T07:58:00.572Z,13.59
2022-10-14T07:59:00.561Z,13.73
2022-10-14T08:00:00.626Z,13.76
2022-10-14T08:01:00.548Z,13.77
2022-10-14T08:02:00.592Z,13.76
2022-10-14T08:03:00.520Z,13.87
2022-10-14T08:04:00.530Z,13.94
2022-10-14T08:05:18.954Z,14.02
2022-10-14T08:06:01.483Z,14.17
2022-10-14T08:07:08.505Z,14.19
2022-10-14T08:08:00.473Z,14.28
2022-10-14T08:09:00.455Z,14.31
2022-10-14T08:10:00.515Z,14.42
2022-10-14T08:11:00.433Z,14.52
2022-10-14T08:12:00.441Z,14.68
2022-10-14T08:13:00.424Z,14.64
2022-10-14T08:14:00.407Z,14.90
2022-10-14T08:15:00.420Z,15.05
2022-10-14T08:16:00.403Z,15.09
2022-10-14T08:17:00.378Z,15.35
2022-10-14T08:18:00.364Z,15.52
2022-10-14T08:19:00.352Z,15.48
2022-10-14T08:20:00.365Z,15.60
2022-10-14T08:21:00.329Z,15.67
2022-10-14T08:22:00.318Z,15.85
2022-10-14T08:23:00.315Z,15.94
2022-10-14T08:24:00.318Z,16.15
2022-10-14T08:25:00.288Z,16.12
2022-10-14T08:26:00.274Z,16.37
2022-10-14T08:27:00.309Z,16.48
2022-10-14T08:28:00.255Z,16.62
2022-10-14T08:29:00.254Z,16.88
2022-10-14T08:30:00.246Z,17.06
2022-10-14T08:31:00.237Z,17.30
2022-10-14T08:32:00.286Z,17.59
2022-10-14T08:33:00.198Z,17.81
2022-10-14T08:34:00.237Z,18.00
2022-10-14T08:35:00.173Z,18.25
2022-10-14T08:36:00.166Z,18.50
2022-10-14T08:37:00.237Z,18.76
2022-10-14T08:38:00.158Z,19.10
2022-10-14T08:39:00.245Z,19.38
2022-10-14T08:40:00.145Z,19.61
2022-10-14T08:41:00.115Z,19.70
2022-10-14T08:42:00.116Z,19.76
2022-10-14T08:43:00.106Z,19.94
2022-10-14T08:44:00.113Z,19.90
2022-10-14T08:45:00.083Z,19.83
2022-10-14T08:46:00.073Z,19.65
2022-10-14T08:47:00.060Z,19.58
2022-10-14T08:48:00.076Z,19.55
2022-10-14T08:49:00.049Z,19.61
2022-10-14T08:50:00.014Z,19.58
2022-10-14T08:51:00.020Z,19.78
2022-10-14T08:51:59.989Z,19.70
2022-10-14T08:52:59.987Z,19.72
2022-10-14T08:54:00.005Z,19.66
2022-10-14T08:54:59.959Z,19.83
2022-10-14T08:55:59.967Z,19.97
2022-10-14T08:57:00.035Z,19.95
2022-10-14T08:58:00.008Z,19.97
2022-10-14T08:58:59.947Z,19.83
2022-10-14T08:59:59.908Z,19.65
2022-10-14T09:00:59.929Z,19.46
2022-10-14T09:01:59.881Z,19.90
2022-10-14T09:02:59.938Z,20.10
2022-10-14T09:03:59.958Z,20.49
2022-10-14T09:04:59.850Z,20.42
2022-10-14T09:05:59.843Z,20.46
2022-10-14T09:06:59.830Z,20.59
2022-10-14T09:07:59.837Z,20.72
2022-10-14T09:08:59.828Z,20.47
2022-10-14T09:09:59.802Z,20.46
2022-10-14T09:10:59.787Z,20.47
2022-10-14T09:11:59.783Z,20.49
2022-10-14T09:12:59.767Z,20.31
2022-10-14T09:13:59.762Z,20.28
2022-10-14T09:14:59.801Z,20.20
2022-10-14T09:15:59.742Z,20.12
2022-10-14T09:16:59.782Z,20.05
2022-10-14T09:17:59.767Z,20.09
2022-10-14T09:18:59.710Z,20.30
2022-10-14T09:19:59.726Z,20.62
2022-10-14T09:20:59.683Z,20.71
2022-10-14T09:21:59.684Z,20.72
2022-10-14T09:22:59.664Z,20.71
2022-10-14T09:23:59.657Z,20.91
2022-10-14T09:24:59.682Z,21.38
2022-10-14T09:25:59.627Z,21.90
2022-10-14T09:26:59.624Z,22.12
2022-10-14T09:27:59.608Z,22.50
2022-10-14T09:28:59.636Z,22.69
2022-10-14T09:29:59.609Z,22.89
2022-10-14T09:30:59.574Z,22.78
2022-10-14T09:31:59.572Z,22.69
2022-10-14T09:32:59.564Z,22.35
2022-10-14T09:33:59.543Z,21.85
2022-10-14T09:34:59.556Z,21.63
2022-10-14T09:36:59.519Z,21.34
2022-10-14T09:37:59.505Z,21.21
2022-10-14T09:39:03.705Z,21.26
2022-10-14T09:40:00.507Z,21.14
2022-10-14T09:40:59.468Z,21.41
2022-10-14T09:41:59.468Z,21.82
2022-10-14T09:42:59.450Z,22.38
2022-10-14T09:43:59.439Z,22.62
2022-10-14T09:44:59.503Z,23.15
2022-10-14T09:45:59.430Z,23.27
2022-10-14T09:46:59.405Z,23.38
2022-10-14T09:47:59.405Z,23.23
2022-10-14T09:48:59.389Z,23.39
2022-10-14T09:49:59.424Z,23.47
2022-10-14T09:50:59.365Z,23.40
2022-10-14T09:51:59.369Z,23.23
2022-10-14T09:52:59.353Z,23.02
2022-10-14T09:53:59.437Z,22.94
2022-10-14T09:54:59.343Z,22.78
2022-10-14T09:55:59.322Z,22.65
2022-10-14T09:56:59.308Z,22.68
2022-10-14T09:57:59.294Z,22.89
2022-10-14T09:58:59.279Z,22.67
2022-10-14T09:59:59.321Z,22.69
2022-10-14T10:00:59.260Z,22.59
2022-10-14T10:01:59.246Z,22.47
2022-10-14T10:02:59.243Z,22.44
2022-10-14T10:03:59.461Z,22.19
2022-10-14T10:04:59.252Z,22.12
2022-10-14T10:05:59.210Z,22.04
2022-10-14T10:06:59.204Z,21.83
2022-10-14T10:07:59.221Z,21.61
2022-10-14T10:08:59.183Z,21.21
2022-10-14T10:09:59.184Z,20.98
2022-10-14T10:11:03.637Z,20.62
2022-10-14T10:12:00.140Z,20.39
2022-10-14T10:12:59.130Z,20.28
2022-10-14T10:13:59.138Z,20.05
2022-10-14T10:14:59.146Z,19.97
2022-10-14T10:15:59.106Z,19.79
2022-10-14T10:16:59.110Z,19.69
2022-10-14T10:17:59.077Z,19.68
2022-10-14T10:18:59.077Z,19.61
2022-10-14T10:19:59.109Z,19.69
2022-10-14T10:20:59.051Z,19.78
2022-10-14T10:21:59.050Z,19.83
2022-10-14T10:22:59.030Z,19.84
2022-10-14T10:23:59.041Z,19.58
2022-10-14T10:24:59.036Z,19.55
2022-10-14T10:25:58.996Z,19.47
2022-10-14T10:26:58.993Z,19.40
2022-10-14T10:27:58.970Z,19.38
2022-10-14T10:28:59.029Z,19.40
2022-10-14T10:29:58.963Z,19.28
2022-10-14T10:30:58.940Z,19.15
2022-10-14T10:31:58.932Z,18.94
2022-10-14T10:32:58.917Z,19.01
2022-10-14T10:33:58.907Z,18.84
2022-10-14T10:34:58.983Z,18.73
2022-10-14T10:35:58.886Z,18.70
2022-10-14T10:36:58.873Z,18.67
2022-10-14T10:37:58.863Z,18.62
2022-10-14T10:38:58.867Z,18.54
2022-10-14T10:39:58.919Z,18.50
2022-10-14T10:40:58.827Z,18.61
2022-10-14T10:41:58.837Z,18.57
2022-10-14T10:42:58.805Z,18.61
2022-10-14T10:43:58.795Z,18.57
2022-10-14T10:44:58.875Z,18.52
2022-10-14T10:45:58.769Z,18.58
2022-10-14T10:46:58.905Z,18.72
2022-10-14T10:47:58.756Z,18.72
2022-10-14T10:48:58.743Z,18.73
2022-10-14T10:49:58.768Z,18.65
2022-10-14T10:50:58.718Z,18.67
2022-10-14T10:51:58.703Z,18.49
2022-10-14T10:52:58.697Z,18.67
2022-10-14T10:53:58.700Z,18.67
2022-10-14T10:54:58.727Z,18.52
2022-10-14T10:55:58.684Z,18.57
2022-10-14T10:56:58.670Z,18.50
2022-10-14T10:57:58.653Z,18.54
2022-10-14T10:58:58.654Z,18.50
2022-10-14T10:59:58.644Z,18.47
2022-10-14T11:00:58.617Z,18.57
2022-10-14T11:01:58.607Z,18.54
2022-10-14T11:02:58.592Z,18.61
2022-10-14T11:03:58.584Z,18.62
2022-10-14T11:04:58.578Z,18.55
2022-10-14T11:05:58.557Z,18.52
2022-10-14T11:06:58.557Z,18.54
2022-10-14T11:07:58.536Z,18.46
2022-10-14T11:08:58.534Z,18.39
2022-10-14T11:09:58.532Z,18.52
2022-10-14T11:10:58.506Z,18.49
2022-10-14T11:11:58.515Z,18.44
2022-10-14T11:12:58.483Z,18.39
2022-10-14T11:13:58.467Z,18.33
2022-10-14T11:14:58.483Z,18.34
2022-10-14T11:15:58.445Z,18.39
2022-10-14T11:16:58.437Z,18.43
2022-10-14T11:17:58.425Z,18.31
2022-10-14T11:18:58.419Z,18.43
2022-10-14T11:19:58.418Z,18.39
2022-10-14T11:20:58.396Z,18.46
2022-10-14T11:21:58.392Z,18.49
2022-10-14T11:22:58.372Z,18.49
2022-10-14T11:23:58.361Z,18.54
2022-10-14T11:24:58.372Z,18.49
2022-10-14T11:25:58.352Z,18.55
2022-10-14T11:26:58.355Z,18.62
2022-10-14T11:27:58.367Z,18.58
2022-10-14T11:28:58.390Z,18.59
2022-10-14T11:29:58.311Z,18.64
2022-10-14T11:30:58.290Z,18.54
2022-10-14T11:31:58.279Z,18.59
2022-10-14T11:32:58.269Z,18.62
2022-10-14T11:33:58.268Z,18.57
2022-10-14T11:34:58.283Z,18.37
2022-10-14T11:35:58.239Z,18.39
2022-10-14T11:36:58.255Z,18.28
2022-10-14T11:37:58.234Z,18.24
2022-10-14T11:38:58.206Z,18.24
2022-10-14T11:39:58.204Z,18.27
2022-10-14T11:40:58.183Z,18.28
2022-10-14T11:41:58.278Z,18.18
2022-10-14T11:42:58.165Z,18.18
2022-10-14T11:43:58.174Z,18.12
2022-10-14T11:44:58.168Z,18.17
2022-10-14T11:45:58.133Z,18.12
2022-10-14T11:46:58.120Z,18.07
2022-10-14T11:47:58.110Z,18.06
2022-10-14T11:48:58.102Z,17.95
2022-10-14T11:49:58.104Z,17.95
2022-10-14T11:50:58.081Z,17.92
2022-10-14T11:51:58.065Z,17.85
2022-10-14T11:52:58.064Z,17.87
2022-10-14T11:53:58.044Z,17.81
2022-10-14T11:54:58.050Z,17.85
2022-10-14T11:55:58.024Z,17.84
2022-10-14T11:56:58.013Z,17.87
2022-10-14T11:57:58.008Z,17.99
2022-10-14T11:58:58.050Z,18.04
2022-10-14T11:59:57.998Z,18.15
2022-10-14T12:00:57.975Z,18.21
2022-10-14T12:01:57.960Z,18.06
2022-10-14T12:02:58.032Z,17.95
2022-10-14T12:03:57.952Z,18.03
2022-10-14T12:04:57.936Z,18.00
2022-10-14T12:05:57.918Z,18.02
2022-10-14T12:06:57.909Z,18.04
2022-10-14T12:07:57.896Z,18.09
2022-10-14T12:08:57.902Z,18.10
2022-10-14T12:09:59.930Z,18.09
2022-10-14T12:10:57.888Z,18.18
2022-10-14T12:11:57.854Z,18.13
2022-10-14T12:12:57.853Z,18.18
2022-10-14T12:13:57.843Z,18.29
2022-10-14T12:14:57.843Z,18.21
2022-10-14T12:15:57.826Z,18.21
2022-10-14T12:16:57.806Z,18.25
2022-10-14T12:17:57.791Z,18.24
2022-10-14T12:18:57.803Z,18.18
2022-10-14T12:19:57.801Z,18.04
2022-10-14T12:20:57.789Z,18.10
2022-10-14T12:21:57.771Z,18.10
2022-10-14T12:22:57.734Z,18.12
2022-10-14T12:23:57.737Z,18.18
2022-10-14T12:24:57.719Z,18.15
2022-10-14T12:25:57.700Z,18.07
2022-10-14T12:26:57.692Z,17.95
2022-10-14T12:27:57.750Z,17.99
2022-10-14T12:28:58.865Z,17.99
2022-10-14T12:29:57.659Z,18.06
2022-10-14T12:30:57.651Z,18.17
2022-10-14T12:31:57.654Z,18.17
2022-10-14T12:32:57.628Z,18.25
2022-10-14T12:33:57.631Z,18.24
2022-10-14T12:34:57.607Z,18.21
2022-10-14T12:35:57.594Z,18.25
2022-10-14T12:36:57.594Z,18.28
2022-10-14T12:38:57.609Z,18.25
2022-10-14T12:39:57.549Z,18.25
2022-10-14T12:40:57.540Z,18.22
2022-10-14T12:41:57.532Z,18.25
2022-10-14T12:42:57.543Z,18.24
2022-10-14T12:43:57.526Z,18.27
2022-10-14T12:44:57.497Z,18.22
2022-10-14T12:45:57.488Z,18.18
2022-10-14T12:46:57.474Z,18.18
2022-10-14T12:47:57.483Z,18.19
2022-10-14T12:48:57.475Z,18.17
2022-10-14T12:49:57.443Z,18.09
2022-10-14T12:50:57.430Z,18.09
2022-10-14T12:51:57.420Z,18.04
2022-10-14T12:52:57.438Z,18.07
2022-10-14T12:53:57.423Z,18.18
2022-10-14T12:54:57.389Z,18.04